sensor_id;sensor_type;location;lat;lon;timestamp;P1;durP1;ratioP1;P2;durP2;ratioP2
29958;SDS011;16815;51.100;6.516;2023-09-19T00:00:26;7.97;;;2.40;;
29958;SDS011;16815;51.100;6.516;2023-09-19T00:02:56;7.47;;;2.40;;
29958;SDS011;16815;51.100;6.516;2023-09-19T00:05:24;7.60;;;2.17;;
29958;SDS011;16815;51.100;6.516;2023-09-19T00:07:53;4.90;;;2.33;;
29958;SDS011;16815;51.100;6.516;2023-09-19T00:10:20;6.87;;;2.43;;
29958;SDS011;16815;51.100;6.516;2023-09-19T00:12:46;8.10;;;2.40;;
29958;SDS011;16815;51.100;6.516;2023-09-19T00:15:13;6.53;;;2.47;;
29958;SDS011;16815;51.100;6.516;2023-09-19T00:17:42;5.60;;;2.27;;
29958;SDS011;16815;51.100;6.516;2023-09-19T00:20:08;8.40;;;2.70;;
29958;SDS011;16815;51.100;6.516;2023-09-19T00:22:40;12.20;;;2.70;;
29958;SDS011;16815;51.100;6.516;2023-09-19T00:25:10;5.47;;;2.30;;
29958;SDS011;16815;51.100;6.516;2023-09-19T00:27:37;6.97;;;2.60;;
29958;SDS011;16815;51.100;6.516;2023-09-19T00:30:10;6.03;;;1.97;;
29958;SDS011;16815;51.100;6.516;2023-09-19T00:32:40;6.00;;;2.07;;
29958;SDS011;16815;51.100;6.516;2023-09-19T00:35:07;8.43;;;2.80;;
29958;SDS011;16815;51.100;6.516;2023-09-19T00:37:36;10.03;;;2.60;;
29958;SDS011;16815;51.100;6.516;2023-09-19T00:40:05;7.17;;;2.50;;
29958;SDS011;16815;51.100;6.516;2023-09-19T00:42:35;6.53;;;2.40;;
29958;SDS011;16815;51.100;6.516;2023-09-19T00:45:03;7.73;;;2.17;;
29958;SDS011;16815;51.100;6.516;2023-09-19T00:47:30;6.07;;;2.57;;
29958;SDS011;16815;51.100;6.516;2023-09-19T00:49:56;6.30;;;2.13;;
29958;SDS011;16815;51.100;6.516;2023-09-19T00:52:23;6.20;;;2.50;;
29958;SDS011;16815;51.100;6.516;2023-09-19T00:54:49;5.47;;;2.50;;
29958;SDS011;16815;51.100;6.516;2023-09-19T00:57:15;9.37;;;2.53;;
29958;SDS011;16815;51.100;6.516;2023-09-19T00:59:42;4.63;;;2.40;;
29958;SDS011;16815;51.100;6.516;2023-09-19T01:02:08;7.97;;;2.80;;
29958;SDS011;16815;51.100;6.516;2023-09-19T01:04:34;6.70;;;2.43;;
29958;SDS011;16815;51.100;6.516;2023-09-19T01:07:00;6.93;;;2.83;;
29958;SDS011;16815;51.100;6.516;2023-09-19T01:09:26;8.63;;;2.30;;
29958;SDS011;16815;51.100;6.516;2023-09-19T01:11:53;7.47;;;2.80;;
29958;SDS011;16815;51.100;6.516;2023-09-19T01:17:06;7.00;;;2.30;;
29958;SDS011;16815;51.100;6.516;2023-09-19T01:19:42;6.67;;;2.60;;
29958;SDS011;16815;51.100;6.516;2023-09-19T01:22:19;9.10;;;2.50;;
29958;SDS011;16815;51.100;6.516;2023-09-19T01:27:39;10.70;;;2.83;;
29958;SDS011;16815;51.100;6.516;2023-09-19T01:30:10;8.60;;;2.43;;
29958;SDS011;16815;51.100;6.516;2023-09-19T01:32:36;8.00;;;2.87;;
29958;SDS011;16815;51.100;6.516;2023-09-19T01:35:03;9.50;;;2.40;;
29958;SDS011;16815;51.100;6.516;2023-09-19T01:37:29;5.53;;;2.30;;
29958;SDS011;16815;51.100;6.516;2023-09-19T01:40:03;4.90;;;2.07;;
29958;SDS011;16815;51.100;6.516;2023-09-19T01:45:33;9.27;;;2.90;;
29958;SDS011;16815;51.100;6.516;2023-09-19T01:48:25;6.13;;;2.30;;
29958;SDS011;16815;51.100;6.516;2023-09-19T01:51:09;8.17;;;2.20;;
29958;SDS011;16815;51.100;6.516;2023-09-19T01:53:36;9.50;;;2.50;;
29958;SDS011;16815;51.100;6.516;2023-09-19T01:56:02;7.27;;;2.27;;
29958;SDS011;16815;51.100;6.516;2023-09-19T01:58:33;8.77;;;2.30;;
29958;SDS011;16815;51.100;6.516;2023-09-19T02:01:00;8.97;;;2.87;;
29958;SDS011;16815;51.100;6.516;2023-09-19T02:03:26;7.20;;;2.90;;
29958;SDS011;16815;51.100;6.516;2023-09-19T02:05:54;10.33;;;2.80;;
29958;SDS011;16815;51.100;6.516;2023-09-19T02:08:20;9.80;;;2.70;;
29958;SDS011;16815;51.100;6.516;2023-09-19T02:10:50;7.60;;;2.23;;
29958;SDS011;16815;51.100;6.516;2023-09-19T02:13:19;8.50;;;2.23;;
29958;SDS011;16815;51.100;6.516;2023-09-19T02:15:45;9.53;;;2.77;;
29958;SDS011;16815;51.100;6.516;2023-09-19T02:18:14;6.50;;;2.50;;
29958;SDS011;16815;51.100;6.516;2023-09-19T02:20:40;8.17;;;2.33;;
29958;SDS011;16815;51.100;6.516;2023-09-19T02:23:07;7.90;;;2.20;;
29958;SDS011;16815;51.100;6.516;2023-09-19T02:25:33;6.27;;;2.27;;
29958;SDS011;16815;51.100;6.516;2023-09-19T02:28:00;9.53;;;2.83;;
29958;SDS011;16815;51.100;6.516;2023-09-19T02:30:28;8.73;;;2.33;;
29958;SDS011;16815;51.100;6.516;2023-09-19T02:32:54;7.67;;;2.23;;
29958;SDS011;16815;51.100;6.516;2023-09-19T02:35:20;8.77;;;2.90;;
29958;SDS011;16815;51.100;6.516;2023-09-19T02:37:46;7.80;;;2.50;;
29958;SDS011;16815;51.100;6.516;2023-09-19T02:40:12;8.57;;;2.33;;
29958;SDS011;16815;51.100;6.516;2023-09-19T02:42:47;11.60;;;3.07;;
29958;SDS011;16815;51.100;6.516;2023-09-19T02:45:17;6.47;;;2.60;;
29958;SDS011;16815;51.100;6.516;2023-09-19T02:47:44;8.87;;;3.03;;
29958;SDS011;16815;51.100;6.516;2023-09-19T02:50:10;11.90;;;2.43;;
29958;SDS011;16815;51.100;6.516;2023-09-19T02:52:36;6.57;;;2.40;;
29958;SDS011;16815;51.100;6.516;2023-09-19T02:55:02;7.43;;;2.20;;
29958;SDS011;16815;51.100;6.516;2023-09-19T02:57:31;3.40;;;2.10;;
29958;SDS011;16815;51.100;6.516;2023-09-19T02:59:58;11.30;;;2.47;;
29958;SDS011;16815;51.100;6.516;2023-09-19T03:02:26;8.17;;;2.40;;
29958;SDS011;16815;51.100;6.516;2023-09-19T03:04:53;7.83;;;2.50;;
29958;SDS011;16815;51.100;6.516;2023-09-19T03:07:19;9.60;;;2.83;;
29958;SDS011;16815;51.100;6.516;2023-09-19T03:09:45;9.33;;;3.00;;
29958;SDS011;16815;51.100;6.516;2023-09-19T03:12:11;8.07;;;2.60;;
29958;SDS011;16815;51.100;6.516;2023-09-19T03:14:40;6.73;;;2.43;;
29958;SDS011;16815;51.100;6.516;2023-09-19T03:17:06;6.27;;;2.73;;
29958;SDS011;16815;51.100;6.516;2023-09-19T03:19:34;8.97;;;3.13;;
29958;SDS011;16815;51.100;6.516;2023-09-19T03:22:00;9.50;;;2.70;;
29958;SDS011;16815;51.100;6.516;2023-09-19T03:24:27;10.07;;;2.97;;
29958;SDS011;16815;51.100;6.516;2023-09-19T03:26:54;8.43;;;2.40;;
29958;SDS011;16815;51.100;6.516;2023-09-19T03:29:20;8.07;;;2.87;;
29958;SDS011;16815;51.100;6.516;2023-09-19T03:31:46;7.23;;;2.53;;
29958;SDS011;16815;51.100;6.516;2023-09-19T03:34:12;9.83;;;2.80;;
29958;SDS011;16815;51.100;6.516;2023-09-19T03:36:38;9.20;;;3.27;;
29958;SDS011;16815;51.100;6.516;2023-09-19T03:39:05;14.50;;;3.27;;
29958;SDS011;16815;51.100;6.516;2023-09-19T03:41:31;10.03;;;3.00;;
29958;SDS011;16815;51.100;6.516;2023-09-19T03:43:58;14.87;;;2.83;;
29958;SDS011;16815;51.100;6.516;2023-09-19T03:46:24;11.33;;;2.83;;
29958;SDS011;16815;51.100;6.516;2023-09-19T03:48:50;8.37;;;2.93;;
29958;SDS011;16815;51.100;6.516;2023-09-19T03:51:16;7.63;;;2.70;;
29958;SDS011;16815;51.100;6.516;2023-09-19T03:53:42;8.23;;;2.67;;
29958;SDS011;16815;51.100;6.516;2023-09-19T03:56:08;10.77;;;2.60;;
29958;SDS011;16815;51.100;6.516;2023-09-19T03:58:34;11.23;;;3.57;;
29958;SDS011;16815;51.100;6.516;2023-09-19T04:01:04;7.60;;;2.47;;
29958;SDS011;16815;51.100;6.516;2023-09-19T04:03:31;9.00;;;2.77;;
29958;SDS011;16815;51.100;6.516;2023-09-19T04:06:11;9.73;;;3.00;;
29958;SDS011;16815;51.100;6.516;2023-09-19T04:08:37;7.27;;;2.40;;
29958;SDS011;16815;51.100;6.516;2023-09-19T04:11:03;11.70;;;3.00;;
29958;SDS011;16815;51.100;6.516;2023-09-19T04:13:29;7.83;;;2.47;;
29958;SDS011;16815;51.100;6.516;2023-09-19T04:15:55;11.80;;;3.20;;
29958;SDS011;16815;51.100;6.516;2023-09-19T04:18:21;11.93;;;2.80;;
29958;SDS011;16815;51.100;6.516;2023-09-19T04:20:51;9.57;;;2.67;;
29958;SDS011;16815;51.100;6.516;2023-09-19T04:23:17;6.77;;;2.37;;
29958;SDS011;16815;51.100;6.516;2023-09-19T04:25:45;11.43;;;2.57;;
29958;SDS011;16815;51.100;6.516;2023-09-19T04:28:12;8.17;;;3.00;;
29958;SDS011;16815;51.100;6.516;2023-09-19T04:30:38;8.57;;;2.50;;
29958;SDS011;16815;51.100;6.516;2023-09-19T04:33:07;14.13;;;3.17;;
29958;SDS011;16815;51.100;6.516;2023-09-19T04:35:33;7.07;;;2.83;;
29958;SDS011;16815;51.100;6.516;2023-09-19T04:37:59;7.07;;;2.33;;
29958;SDS011;16815;51.100;6.516;2023-09-19T04:40:26;10.47;;;2.60;;
29958;SDS011;16815;51.100;6.516;2023-09-19T04:42:55;11.87;;;3.13;;
29958;SDS011;16815;51.100;6.516;2023-09-19T04:45:22;7.30;;;2.50;;
29958;SDS011;16815;51.100;6.516;2023-09-19T04:47:48;5.70;;;2.20;;
29958;SDS011;16815;51.100;6.516;2023-09-19T04:50:14;6.93;;;2.67;;
29958;SDS011;16815;51.100;6.516;2023-09-19T04:52:40;6.63;;;2.77;;
29958;SDS011;16815;51.100;6.516;2023-09-19T04:55:16;13.30;;;3.33;;
29958;SDS011;16815;51.100;6.516;2023-09-19T04:57:45;16.20;;;3.00;;
29958;SDS011;16815;51.100;6.516;2023-09-19T05:00:12;13.47;;;3.63;;
29958;SDS011;16815;51.100;6.516;2023-09-19T05:02:39;7.27;;;2.57;;
29958;SDS011;16815;51.100;6.516;2023-09-19T05:05:06;9.87;;;3.10;;
29958;SDS011;16815;51.100;6.516;2023-09-19T05:07:33;9.07;;;2.83;;
29958;SDS011;16815;51.100;6.516;2023-09-19T05:09:59;8.83;;;2.43;;
29958;SDS011;16815;51.100;6.516;2023-09-19T05:12:28;8.67;;;2.87;;
29958;SDS011;16815;51.100;6.516;2023-09-19T05:14:54;8.60;;;3.30;;
29958;SDS011;16815;51.100;6.516;2023-09-19T05:17:20;9.80;;;3.30;;
29958;SDS011;16815;51.100;6.516;2023-09-19T05:19:46;9.57;;;2.57;;
29958;SDS011;16815;51.100;6.516;2023-09-19T05:22:13;13.03;;;2.70;;
29958;SDS011;16815;51.100;6.516;2023-09-19T05:24:39;10.13;;;2.73;;
29958;SDS011;16815;51.100;6.516;2023-09-19T05:27:05;9.63;;;2.67;;
29958;SDS011;16815;51.100;6.516;2023-09-19T05:29:32;9.10;;;2.87;;
29958;SDS011;16815;51.100;6.516;2023-09-19T05:31:58;9.80;;;3.33;;
29958;SDS011;16815;51.100;6.516;2023-09-19T05:34:24;7.17;;;2.73;;
29958;SDS011;16815;51.100;6.516;2023-09-19T05:36:55;12.47;;;2.87;;
29958;SDS011;16815;51.100;6.516;2023-09-19T05:39:21;12.13;;;3.20;;
29958;SDS011;16815;51.100;6.516;2023-09-19T05:41:47;11.53;;;3.00;;
29958;SDS011;16815;51.100;6.516;2023-09-19T05:44:13;8.17;;;3.03;;
29958;SDS011;16815;51.100;6.516;2023-09-19T05:46:39;10.40;;;3.03;;
29958;SDS011;16815;51.100;6.516;2023-09-19T05:49:05;10.13;;;3.00;;
29958;SDS011;16815;51.100;6.516;2023-09-19T05:51:31;10.00;;;3.53;;
29958;SDS011;16815;51.100;6.516;2023-09-19T05:53:57;7.63;;;2.60;;
29958;SDS011;16815;51.100;6.516;2023-09-19T05:56:23;7.20;;;3.00;;
29958;SDS011;16815;51.100;6.516;2023-09-19T05:58:49;8.97;;;2.60;;
29958;SDS011;16815;51.100;6.516;2023-09-19T06:01:17;6.57;;;2.53;;
29958;SDS011;16815;51.100;6.516;2023-09-19T06:03:43;7.57;;;2.77;;
29958;SDS011;16815;51.100;6.516;2023-09-19T06:06:08;8.80;;;2.83;;
29958;SDS011;16815;51.100;6.516;2023-09-19T06:08:35;10.60;;;2.43;;
29958;SDS011;16815;51.100;6.516;2023-09-19T06:11:00;11.13;;;2.60;;
29958;SDS011;16815;51.100;6.516;2023-09-19T06:13:30;11.13;;;3.03;;
29958;SDS011;16815;51.100;6.516;2023-09-19T06:15:58;9.40;;;2.37;;
29958;SDS011;16815;51.100;6.516;2023-09-19T06:18:27;10.43;;;2.77;;
29958;SDS011;16815;51.100;6.516;2023-09-19T06:20:54;12.23;;;3.00;;
29958;SDS011;16815;51.100;6.516;2023-09-19T06:23:21;13.33;;;3.20;;
29958;SDS011;16815;51.100;6.516;2023-09-19T06:28:39;7.97;;;3.00;;
29958;SDS011;16815;51.100;6.516;2023-09-19T08:05:17;9.27;;;3.03;;
29958;SDS011;16815;51.100;6.516;2023-09-19T08:40:41;4.50;;;1.97;;
29958;SDS011;16815;51.100;6.516;2023-09-19T08:43:08;10.70;;;2.30;;
29958;SDS011;16815;51.100;6.516;2023-09-19T08:45:35;9.10;;;2.33;;
29958;SDS011;16815;51.100;6.516;2023-09-19T08:48:20;5.67;;;2.00;;
29958;SDS011;16815;51.100;6.516;2023-09-19T08:53:42;6.73;;;2.13;;
29958;SDS011;16815;51.100;6.516;2023-09-19T08:56:14;6.90;;;2.73;;
29958;SDS011;16815;51.100;6.516;2023-09-19T08:58:53;4.90;;;2.40;;
29958;SDS011;16815;51.100;6.516;2023-09-19T09:01:21;11.43;;;3.17;;
29958;SDS011;16815;51.100;6.516;2023-09-19T09:03:50;6.37;;;2.07;;
29958;SDS011;16815;51.100;6.516;2023-09-19T09:06:20;6.37;;;2.63;;
29958;SDS011;16815;51.100;6.516;2023-09-19T09:08:46;5.00;;;2.07;;
29958;SDS011;16815;51.100;6.516;2023-09-19T09:11:12;8.67;;;2.33;;
29958;SDS011;16815;51.100;6.516;2023-09-19T09:13:39;10.33;;;2.77;;
29958;SDS011;16815;51.100;6.516;2023-09-19T09:16:06;7.70;;;2.57;;
29958;SDS011;16815;51.100;6.516;2023-09-19T09:18:32;11.13;;;3.23;;
29958;SDS011;16815;51.100;6.516;2023-09-19T09:20:58;7.53;;;2.20;;
29958;SDS011;16815;51.100;6.516;2023-09-19T09:23:25;8.27;;;2.40;;
29958;SDS011;16815;51.100;6.516;2023-09-19T09:25:54;5.13;;;2.00;;
29958;SDS011;16815;51.100;6.516;2023-09-19T09:28:24;8.07;;;2.40;;
29958;SDS011;16815;51.100;6.516;2023-09-19T09:30:51;7.07;;;2.20;;
29958;SDS011;16815;51.100;6.516;2023-09-19T09:33:17;6.50;;;2.70;;
29958;SDS011;16815;51.100;6.516;2023-09-19T09:35:47;7.23;;;2.20;;
29958;SDS011;16815;51.100;6.516;2023-09-19T09:38:17;8.27;;;2.20;;
29958;SDS011;16815;51.100;6.516;2023-09-19T09:41:04;8.97;;;2.00;;
29958;SDS011;16815;51.100;6.516;2023-09-19T09:43:36;6.33;;;2.10;;
29958;SDS011;16815;51.100;6.516;2023-09-19T09:46:09;5.23;;;1.97;;
29958;SDS011;16815;51.100;6.516;2023-09-19T09:48:56;5.77;;;2.13;;
29958;SDS011;16815;51.100;6.516;2023-09-19T09:51:44;7.27;;;2.53;;
29958;SDS011;16815;51.100;6.516;2023-09-19T09:54:22;5.67;;;2.03;;
29958;SDS011;16815;51.100;6.516;2023-09-19T09:56:58;7.20;;;2.57;;
29958;SDS011;16815;51.100;6.516;2023-09-19T09:59:44;7.33;;;2.50;;
29958;SDS011;16815;51.100;6.516;2023-09-19T10:02:18;9.97;;;2.73;;
29958;SDS011;16815;51.100;6.516;2023-09-19T10:04:54;6.43;;;2.33;;
29958;SDS011;16815;51.100;6.516;2023-09-19T10:07:39;10.10;;;2.50;;
29958;SDS011;16815;51.100;6.516;2023-09-19T10:10:07;6.17;;;2.03;;
29958;SDS011;16815;51.100;6.516;2023-09-19T10:12:42;6.40;;;2.27;;
29958;SDS011;16815;51.100;6.516;2023-09-19T10:15:08;8.67;;;3.00;;
29958;SDS011;16815;51.100;6.516;2023-09-19T10:17:36;6.97;;;2.37;;
29958;SDS011;16815;51.100;6.516;2023-09-19T10:20:02;5.23;;;2.13;;
29958;SDS011;16815;51.100;6.516;2023-09-19T10:22:43;7.77;;;2.30;;
29958;SDS011;16815;51.100;6.516;2023-09-19T10:25:21;6.40;;;2.03;;
29958;SDS011;16815;51.100;6.516;2023-09-19T10:27:48;7.60;;;2.47;;
29958;SDS011;16815;51.100;6.516;2023-09-19T10:30:16;6.17;;;2.30;;
29958;SDS011;16815;51.100;6.516;2023-09-19T10:32:43;5.63;;;1.97;;
29958;SDS011;16815;51.100;6.516;2023-09-19T10:35:11;6.60;;;2.00;;
29958;SDS011;16815;51.100;6.516;2023-09-19T10:37:39;8.80;;;2.80;;
29958;SDS011;16815;51.100;6.516;2023-09-19T10:40:06;6.33;;;2.63;;
29958;SDS011;16815;51.100;6.516;2023-09-19T10:42:35;5.13;;;2.17;;
29958;SDS011;16815;51.100;6.516;2023-09-19T10:45:03;9.00;;;2.50;;
29958;SDS011;16815;51.100;6.516;2023-09-19T10:47:32;8.23;;;2.77;;
29958;SDS011;16815;51.100;6.516;2023-09-19T10:49:58;6.97;;;2.20;;
29958;SDS011;16815;51.100;6.516;2023-09-19T10:52:25;12.63;;;2.93;;
29958;SDS011;16815;51.100;6.516;2023-09-19T10:54:52;10.67;;;2.63;;
29958;SDS011;16815;51.100;6.516;2023-09-19T10:57:22;7.70;;;2.33;;
29958;SDS011;16815;51.100;6.516;2023-09-19T11:00:04;7.67;;;2.80;;
29958;SDS011;16815;51.100;6.516;2023-09-19T11:05:36;9.50;;;2.50;;
29958;SDS011;16815;51.100;6.516;2023-09-19T11:08:06;10.87;;;2.10;;
29958;SDS011;16815;51.100;6.516;2023-09-19T11:10:48;7.73;;;2.30;;
29958;SDS011;16815;51.100;6.516;2023-09-19T11:13:25;5.97;;;2.03;;
29958;SDS011;16815;51.100;6.516;2023-09-19T11:26:40;6.77;;;2.63;;
29958;SDS011;16815;51.100;6.516;2023-09-19T11:29:24;8.50;;;2.27;;
29958;SDS011;16815;51.100;6.516;2023-09-19T11:31:51;3.73;;;1.80;;
29958;SDS011;16815;51.100;6.516;2023-09-19T11:37:01;10.73;;;2.20;;
29958;SDS011;16815;51.100;6.516;2023-09-19T11:39:29;6.87;;;2.27;;
29958;SDS011;16815;51.100;6.516;2023-09-19T11:41:55;7.50;;;2.40;;
29958;SDS011;16815;51.100;6.516;2023-09-19T11:44:31;6.60;;;2.07;;
29958;SDS011;16815;51.100;6.516;2023-09-19T11:46:58;8.10;;;2.10;;
29958;SDS011;16815;51.100;6.516;2023-09-19T11:49:28;7.83;;;2.00;;
29958;SDS011;16815;51.100;6.516;2023-09-19T11:52:01;9.03;;;2.13;;
29958;SDS011;16815;51.100;6.516;2023-09-19T11:54:31;9.13;;;2.73;;
29958;SDS011;16815;51.100;6.516;2023-09-19T11:56:57;6.73;;;2.17;;
29958;SDS011;16815;51.100;6.516;2023-09-19T11:59:24;10.20;;;2.67;;
29958;SDS011;16815;51.100;6.516;2023-09-19T12:02:06;14.10;;;2.83;;
29958;SDS011;16815;51.100;6.516;2023-09-19T12:07:07;6.60;;;2.53;;
29958;SDS011;16815;51.100;6.516;2023-09-19T12:09:44;8.30;;;2.17;;
29958;SDS011;16815;51.100;6.516;2023-09-19T12:12:25;6.47;;;2.33;;
29958;SDS011;16815;51.100;6.516;2023-09-19T12:14:54;6.93;;;1.57;;
29958;SDS011;16815;51.100;6.516;2023-09-19T12:17:22;9.17;;;2.37;;
29958;SDS011;16815;51.100;6.516;2023-09-19T12:19:52;5.90;;;2.60;;
29958;SDS011;16815;51.100;6.516;2023-09-19T12:22:18;5.00;;;2.07;;
29958;SDS011;16815;51.100;6.516;2023-09-19T12:24:45;5.20;;;2.10;;
29958;SDS011;16815;51.100;6.516;2023-09-19T12:27:12;7.70;;;2.10;;
29958;SDS011;16815;51.100;6.516;2023-09-19T12:29:56;7.33;;;2.43;;
29958;SDS011;16815;51.100;6.516;2023-09-19T12:32:36;13.57;;;2.67;;
29958;SDS011;16815;51.100;6.516;2023-09-19T12:35:05;7.37;;;2.07;;
29958;SDS011;16815;51.100;6.516;2023-09-19T12:37:35;9.13;;;2.20;;
29958;SDS011;16815;51.100;6.516;2023-09-19T12:40:05;7.60;;;1.90;;
29958;SDS011;16815;51.100;6.516;2023-09-19T12:42:46;7.60;;;2.33;;
29958;SDS011;16815;51.100;6.516;2023-09-19T12:45:12;5.97;;;1.80;;
29958;SDS011;16815;51.100;6.516;2023-09-19T12:47:40;9.33;;;1.97;;
29958;SDS011;16815;51.100;6.516;2023-09-19T12:50:12;8.80;;;2.63;;
29958;SDS011;16815;51.100;6.516;2023-09-19T12:52:48;4.37;;;1.73;;
29958;SDS011;16815;51.100;6.516;2023-09-19T12:58:02;9.90;;;2.00;;
29958;SDS011;16815;51.100;6.516;2023-09-19T13:00:35;9.00;;;2.03;;
29958;SDS011;16815;51.100;6.516;2023-09-19T13:03:15;10.53;;;2.53;;
29958;SDS011;16815;51.100;6.516;2023-09-19T13:05:52;10.37;;;2.40;;
29958;SDS011;16815;51.100;6.516;2023-09-19T13:08:26;8.40;;;1.70;;
29958;SDS011;16815;51.100;6.516;2023-09-19T13:13:26;5.67;;;1.43;;
29958;SDS011;16815;51.100;6.516;2023-09-19T13:15:52;9.40;;;1.93;;
29958;SDS011;16815;51.100;6.516;2023-09-19T13:18:19;4.50;;;1.70;;
29958;SDS011;16815;51.100;6.516;2023-09-19T13:21:05;5.87;;;1.93;;
29958;SDS011;16815;51.100;6.516;2023-09-19T13:23:32;5.73;;;1.50;;
29958;SDS011;16815;51.100;6.516;2023-09-19T13:25:58;4.53;;;1.33;;
29958;SDS011;16815;51.100;6.516;2023-09-19T13:28:24;7.57;;;1.80;;
29958;SDS011;16815;51.100;6.516;2023-09-19T13:30:52;9.13;;;1.93;;
29958;SDS011;16815;51.100;6.516;2023-09-19T13:33:19;8.83;;;2.03;;
29958;SDS011;16815;51.100;6.516;2023-09-19T13:35:46;6.80;;;1.67;;
29958;SDS011;16815;51.100;6.516;2023-09-19T13:38:13;9.63;;;2.00;;
29958;SDS011;16815;51.100;6.516;2023-09-19T13:40:39;6.50;;;2.03;;
29958;SDS011;16815;51.100;6.516;2023-09-19T13:43:07;8.33;;;1.87;;
29958;SDS011;16815;51.100;6.516;2023-09-19T13:45:33;7.43;;;2.30;;
29958;SDS011;16815;51.100;6.516;2023-09-19T13:47:59;17.00;;;2.77;;
29958;SDS011;16815;51.100;6.516;2023-09-19T13:50:25;14.53;;;2.50;;
29958;SDS011;16815;51.100;6.516;2023-09-19T13:52:54;15.30;;;2.53;;
29958;SDS011;16815;51.100;6.516;2023-09-19T13:58:36;6.63;;;1.60;;
29958;SDS011;16815;51.100;6.516;2023-09-19T14:01:33;9.13;;;1.93;;
29958;SDS011;16815;51.100;6.516;2023-09-19T14:10:03;7.07;;;1.60;;
29958;SDS011;16815;51.100;6.516;2023-09-19T14:12:32;6.80;;;2.00;;
29958;SDS011;16815;51.100;6.516;2023-09-19T14:15:15;6.90;;;1.40;;
29958;SDS011;16815;51.100;6.516;2023-09-19T14:17:41;4.67;;;1.30;;
29958;SDS011;16815;51.100;6.516;2023-09-19T14:20:27;6.87;;;1.87;;
29958;SDS011;16815;51.100;6.516;2023-09-19T14:22:59;5.97;;;1.53;;
29958;SDS011;16815;51.100;6.516;2023-09-19T14:28:15;6.87;;;1.67;;
29958;SDS011;16815;51.100;6.516;2023-09-19T14:34:01;6.13;;;1.60;;
29958;SDS011;16815;51.100;6.516;2023-09-19T14:39:11;11.80;;;1.63;;
29958;SDS011;16815;51.100;6.516;2023-09-19T14:41:58;8.93;;;1.50;;
29958;SDS011;16815;51.100;6.516;2023-09-19T14:50:05;8.73;;;1.60;;
29958;SDS011;16815;51.100;6.516;2023-09-19T14:52:33;9.07;;;2.00;;
29958;SDS011;16815;51.100;6.516;2023-09-19T15:04:27;3.40;;;1.40;;
29958;SDS011;16815;51.100;6.516;2023-09-19T15:07:18;6.33;;;1.67;;
29958;SDS011;16815;51.100;6.516;2023-09-19T15:10:13;3.70;;;1.10;;
29958;SDS011;16815;51.100;6.516;2023-09-19T15:13:00;5.23;;;1.13;;
29958;SDS011;16815;51.100;6.516;2023-09-19T15:15:46;7.37;;;2.10;;
29958;SDS011;16815;51.100;6.516;2023-09-19T15:21:05;4.30;;;1.50;;
29958;SDS011;16815;51.100;6.516;2023-09-19T15:23:50;4.73;;;1.40;;
29958;SDS011;16815;51.100;6.516;2023-09-19T15:29:25;7.17;;;1.60;;
29958;SDS011;16815;51.100;6.516;2023-09-19T15:31:51;8.20;;;1.70;;
29958;SDS011;16815;51.100;6.516;2023-09-19T15:34:26;4.77;;;1.30;;
29958;SDS011;16815;51.100;6.516;2023-09-19T15:36:56;4.47;;;1.40;;
29958;SDS011;16815;51.100;6.516;2023-09-19T15:39:22;8.23;;;1.03;;
29958;SDS011;16815;51.100;6.516;2023-09-19T15:42:00;9.00;;;2.00;;
29958;SDS011;16815;51.100;6.516;2023-09-19T15:44:41;12.23;;;1.63;;
29958;SDS011;16815;51.100;6.516;2023-09-19T15:47:17;4.63;;;1.40;;
29958;SDS011;16815;51.100;6.516;2023-09-19T15:49:44;7.83;;;1.50;;
29958;SDS011;16815;51.100;6.516;2023-09-19T15:52:26;5.40;;;1.40;;
29958;SDS011;16815;51.100;6.516;2023-09-19T15:54:58;5.17;;;1.30;;
29958;SDS011;16815;51.100;6.516;2023-09-19T15:58:02;3.60;;;1.40;;
29958;SDS011;16815;51.100;6.516;2023-09-19T16:00:31;2.63;;;1.20;;
29958;SDS011;16815;51.100;6.516;2023-09-19T16:03:02;3.43;;;1.07;;
29958;SDS011;16815;51.100;6.516;2023-09-19T16:05:41;5.60;;;1.20;;
29958;SDS011;16815;51.100;6.516;2023-09-19T16:08:07;4.43;;;1.33;;
29958;SDS011;16815;51.100;6.516;2023-09-19T16:10:47;2.40;;;1.17;;
29958;SDS011;16815;51.100;6.516;2023-09-19T16:13:13;3.23;;;1.10;;
29958;SDS011;16815;51.100;6.516;2023-09-19T16:15:42;4.70;;;1.50;;
29958;SDS011;16815;51.100;6.516;2023-09-19T16:18:13;6.87;;;1.10;;
29958;SDS011;16815;51.100;6.516;2023-09-19T16:20:39;5.00;;;1.10;;
29958;SDS011;16815;51.100;6.516;2023-09-19T16:23:17;5.17;;;1.10;;
29958;SDS011;16815;51.100;6.516;2023-09-19T16:25:44;3.30;;;1.40;;
29958;SDS011;16815;51.100;6.516;2023-09-19T16:28:16;3.33;;;1.20;;
29958;SDS011;16815;51.100;6.516;2023-09-19T16:30:42;4.60;;;1.10;;
29958;SDS011;16815;51.100;6.516;2023-09-19T16:33:08;3.53;;;1.10;;
29958;SDS011;16815;51.100;6.516;2023-09-19T16:35:36;3.53;;;1.00;;
29958;SDS011;16815;51.100;6.516;2023-09-19T16:38:03;3.93;;;1.23;;
29958;SDS011;16815;51.100;6.516;2023-09-19T16:40:29;5.67;;;1.30;;
29958;SDS011;16815;51.100;6.516;2023-09-19T16:42:55;4.40;;;1.20;;
29958;SDS011;16815;51.100;6.516;2023-09-19T16:45:21;6.40;;;1.40;;
29958;SDS011;16815;51.100;6.516;2023-09-19T16:47:48;6.97;;;1.50;;
29958;SDS011;16815;51.100;6.516;2023-09-19T16:50:13;7.13;;;1.50;;
29958;SDS011;16815;51.100;6.516;2023-09-19T16:52:39;6.50;;;1.60;;
29958;SDS011;16815;51.100;6.516;2023-09-19T16:55:05;5.37;;;1.77;;
29958;SDS011;16815;51.100;6.516;2023-09-19T16:57:32;5.40;;;1.60;;
29958;SDS011;16815;51.100;6.516;2023-09-19T16:59:58;3.87;;;1.40;;
29958;SDS011;16815;51.100;6.516;2023-09-19T17:02:24;7.03;;;2.17;;
29958;SDS011;16815;51.100;6.516;2023-09-19T17:04:49;1.77;;;1.10;;
29958;SDS011;16815;51.100;6.516;2023-09-19T17:07:16;4.43;;;1.30;;
29958;SDS011;16815;51.100;6.516;2023-09-19T17:09:42;7.77;;;1.17;;
29958;SDS011;16815;51.100;6.516;2023-09-19T17:12:08;2.80;;;1.13;;
29958;SDS011;16815;51.100;6.516;2023-09-19T17:14:35;3.70;;;1.20;;
29958;SDS011;16815;51.100;6.516;2023-09-19T17:17:01;3.97;;;1.27;;
29958;SDS011;16815;51.100;6.516;2023-09-19T17:19:28;5.20;;;1.43;;
29958;SDS011;16815;51.100;6.516;2023-09-19T17:21:53;5.50;;;1.60;;
29958;SDS011;16815;51.100;6.516;2023-09-19T17:24:19;2.30;;;1.40;;
29958;SDS011;16815;51.100;6.516;2023-09-19T17:26:45;1.93;;;0.93;;
29958;SDS011;16815;51.100;6.516;2023-09-19T17:29:11;2.60;;;1.13;;
29958;SDS011;16815;51.100;6.516;2023-09-19T17:31:37;5.33;;;1.40;;
29958;SDS011;16815;51.100;6.516;2023-09-19T17:34:04;3.43;;;1.73;;
29958;SDS011;16815;51.100;6.516;2023-09-19T17:36:30;4.93;;;1.30;;
29958;SDS011;16815;51.100;6.516;2023-09-19T17:39:00;3.43;;;1.10;;
29958;SDS011;16815;51.100;6.516;2023-09-19T17:41:30;5.27;;;1.50;;
29958;SDS011;16815;51.100;6.516;2023-09-19T17:43:57;2.57;;;1.10;;
29958;SDS011;16815;51.100;6.516;2023-09-19T17:46:23;2.20;;;1.23;;
29958;SDS011;16815;51.100;6.516;2023-09-19T17:48:53;5.00;;;1.37;;
29958;SDS011;16815;51.100;6.516;2023-09-19T17:51:19;4.63;;;1.40;;
29958;SDS011;16815;51.100;6.516;2023-09-19T17:53:46;6.13;;;1.40;;
29958;SDS011;16815;51.100;6.516;2023-09-19T17:56:13;3.67;;;1.33;;
29958;SDS011;16815;51.100;6.516;2023-09-19T17:58:42;3.97;;;1.50;;
29958;SDS011;16815;51.100;6.516;2023-09-19T18:01:12;5.53;;;1.50;;
29958;SDS011;16815;51.100;6.516;2023-09-19T18:03:39;5.77;;;1.20;;
29958;SDS011;16815;51.100;6.516;2023-09-19T18:06:06;3.80;;;1.33;;
29958;SDS011;16815;51.100;6.516;2023-09-19T18:08:32;4.47;;;1.50;;
29958;SDS011;16815;51.100;6.516;2023-09-19T18:10:58;5.53;;;1.93;;
29958;SDS011;16815;51.100;6.516;2023-09-19T18:13:25;10.10;;;2.70;;
29958;SDS011;16815;51.100;6.516;2023-09-19T18:15:51;14.03;;;3.50;;
29958;SDS011;16815;51.100;6.516;2023-09-19T18:18:17;13.50;;;3.10;;
29958;SDS011;16815;51.100;6.516;2023-09-19T18:20:43;9.30;;;2.60;;
29958;SDS011;16815;51.100;6.516;2023-09-19T18:23:09;7.33;;;1.87;;